Time;durP1;ratioP1;P1;durP2;ratioP2;P2;SDS_P1;SDS_P2;PMS_P1;PMS_P2;Temp;Humidity;BMP_temperature;BMP_pressure;BME280_temperature;BME280_humidity;BME280_pressure;Samples;Min_cycle;Max_cycle;Signal;HPM_P1;HPM_P2
2023/09/11 00:00:34;;;;;;;20.20;15.05;;;17.10;99.90;;;;;;5020516;28;20108;-59
2023/09/11 00:03:00;;;;;;;19.52;14.73;;;17.00;99.90;;;;;;5028998;28;20025;-60
2023/09/11 00:05:25;;;;;;;23.15;16.25;;;17.00;99.90;;;;;;5027438;28;20220;-59
2023/09/11 00:07:51;;;;;;;21.15;15.23;;;17.10;99.90;;;;;;5026811;28;20030;-59
2023/09/11 00:10:16;;;;;;;22.90;17.40;;;17.00;99.90;;;;;;5022396;28;20091;-59
2023/09/11 00:12:42;;;;;;;22.13;16.48;;;17.00;99.90;;;;;;5027068;28;20017;-60
2023/09/11 00:15:08;;;;;;;19.15;16.70;;;17.00;99.90;;;;;;5028933;28;20096;-59
2023/09/11 00:17:34;;;;;;;21.73;16.88;;;17.10;99.90;;;;;;5027579;28;20025;-59
2023/09/11 00:19:59;;;;;;;20.80;16.75;;;17.10;99.90;;;;;;5024740;28;20515;-61
2023/09/11 00:22:25;;;;;;;22.50;16.45;;;17.10;99.90;;;;;;5028645;28;20459;-60
2023/09/11 00:24:50;;;;;;;19.88;16.63;;;17.00;99.90;;;;;;5026277;28;20032;-59
2023/09/11 00:27:16;;;;;;;25.00;17.98;;;17.00;99.90;;;;;;5025589;28;20048;-60
2023/09/11 00:29:41;;;;;;;21.85;17.55;;;17.00;99.90;;;;;;5027430;28;20102;-60
2023/09/11 00:32:07;;;;;;;23.35;18.27;;;17.00;99.90;;;;;;5016472;28;20071;-60
2023/09/11 00:34:32;;;;;;;20.80;17.38;;;17.00;99.90;;;;;;5026051;28;20330;-60
2023/09/11 00:36:58;;;;;;;27.80;20.25;;;17.00;99.90;;;;;;5027295;28;20054;-60
2023/09/11 00:39:23;;;;;;;23.92;18.42;;;17.00;99.90;;;;;;5027750;28;20088;-61
2023/09/11 00:41:49;;;;;;;24.08;18.15;;;17.00;99.90;;;;;;5027287;28;20030;-61
2023/09/11 00:44:15;;;;;;;22.30;17.40;;;17.00;99.90;;;;;;5021341;28;20033;-61
2023/09/11 00:46:41;;;;;;;27.95;18.42;;;17.00;99.90;;;;;;5027275;28;20437;-61
2023/09/11 00:49:07;;;;;;;23.42;18.13;;;17.00;99.90;;;;;;5021633;28;20030;-60
2023/09/11 00:51:35;;;;;;;24.58;17.95;;;16.90;99.90;;;;;;5026291;28;20041;-60
2023/09/11 00:54:01;;;;;;;22.00;17.13;;;16.80;99.90;;;;;;5018591;28;20014;-61
2023/09/11 00:56:27;;;;;;;24.55;17.17;;;16.80;99.90;;;;;;5028214;28;20394;-61
2023/09/11 00:58:52;;;;;;;25.55;18.50;;;16.70;99.90;;;;;;5023980;28;20037;-59
2023/09/11 01:01:20;;;;;;;19.48;16.25;;;16.70;99.90;;;;;;5026346;28;20030;-59
2023/09/11 01:03:46;;;;;;;20.65;15.85;;;16.60;99.90;;;;;;5025308;28;20033;-58
2023/09/11 01:06:11;;;;;;;21.95;16.15;;;16.60;99.90;;;;;;5027507;28;20036;-58
2023/09/11 01:08:37;;;;;;;19.48;16.10;;;16.60;99.90;;;;;;5021873;28;20033;-58
2023/09/11 01:11:02;;;;;;;22.48;17.95;;;16.60;99.90;;;;;;5019841;28;20040;-58
2023/09/11 01:13:28;;;;;;;24.00;16.80;;;16.60;99.90;;;;;;5025711;28;20033;-58
2023/09/11 01:16:34;;;;;;;21.98;16.45;;;16.50;99.90;;;;;;5024650;28;20026;-58
2023/09/11 01:19:12;;;;;;;28.90;20.65;;;16.50;99.90;;;;;;4993420;28;20026;-59
2023/09/11 01:22:08;;;;;;;24.42;19.55;;;16.60;99.90;;;;;;5027200;28;20429;-59
2023/09/11 01:24:58;;;;;;;21.50;17.48;;;16.50;99.90;;;;;;5021280;28;20116;-59
2023/09/11 01:27:48;;;;;;;22.35;16.88;;;16.40;99.90;;;;;;5024022;28;20053;-59
2023/09/11 01:30:14;;;;;;;18.60;16.20;;;16.40;99.90;;;;;;5025117;28;20033;-59
2023/09/11 01:32:41;;;;;;;19.90;15.75;;;16.30;99.90;;;;;;5029776;28;20032;-58
2023/09/11 01:35:07;;;;;;;17.48;14.45;;;16.20;99.90;;;;;;5028135;28;20028;-59
2023/09/11 01:37:32;;;;;;;19.35;15.70;;;16.20;99.90;;;;;;5028446;28;20030;-58
2023/09/11 01:39:58;;;;;;;19.77;14.93;;;16.10;99.90;;;;;;5026541;28;20414;-58
2023/09/11 01:42:36;;;;;;;20.17;15.70;;;16.10;99.90;;;;;;5029967;28;20056;-58
2023/09/11 01:45:04;;;;;;;22.95;16.75;;;16.10;99.90;;;;;;5039944;28;20026;-58
2023/09/11 01:47:32;;;;;;;24.27;16.45;;;16.00;99.90;;;;;;5028945;28;20040;-58
2023/09/11 01:49:58;;;;;;;21.45;16.33;;;16.00;99.90;;;;;;5026688;28;20036;-60
2023/09/11 01:52:24;;;;;;;21.70;16.95;;;16.00;99.90;;;;;;5029569;28;20037;-59
2023/09/11 01:54:51;;;;;;;23.45;15.77;;;16.10;99.90;;;;;;5025736;28;20018;-58
2023/09/11 01:57:16;;;;;;;20.52;16.48;;;16.10;99.90;;;;;;5031161;28;20055;-59
2023/09/11 01:59:42;;;;;;;24.52;16.98;;;16.10;99.90;;;;;;5028914;28;20022;-58
2023/09/11 02:02:07;;;;;;;19.60;16.58;;;16.10;99.90;;;;;;5026887;28;20088;-59
2023/09/11 02:04:33;;;;;;;20.17;16.58;;;16.10;99.90;;;;;;5026926;28;20453;-60
2023/09/11 02:06:58;;;;;;;19.90;15.95;;;16.00;99.90;;;;;;5031384;28;20034;-59
2023/09/11 02:09:24;;;;;;;20.90;16.42;;;15.90;99.90;;;;;;5030572;28;20407;-59
2023/09/11 02:11:50;;;;;;;19.48;15.50;;;15.90;99.90;;;;;;5028815;28;20068;-59
2023/09/11 02:14:15;;;;;;;19.95;15.80;;;15.90;99.90;;;;;;5025523;28;20049;-59
2023/09/11 02:16:41;;;;;;;20.30;15.35;;;15.80;99.90;;;;;;5030825;28;20025;-59
2023/09/11 02:19:06;;;;;;;18.20;15.30;;;15.80;99.90;;;;;;5030073;28;20029;-59
2023/09/11 02:21:32;;;;;;;20.80;16.42;;;15.80;99.90;;;;;;5030592;28;20010;-59
2023/09/11 02:23:57;;;;;;;20.25;16.27;;;15.70;99.90;;;;;;5030730;28;20013;-59
2023/09/11 02:26:23;;;;;;;23.65;16.40;;;15.80;99.90;;;;;;5016791;28;20556;-59
2023/09/11 02:28:49;;;;;;;21.50;16.40;;;15.80;99.90;;;;;;5030992;28;20025;-59
2023/09/11 02:31:14;;;;;;;19.52;16.13;;;15.70;99.90;;;;;;5019747;28;20095;-59
2023/09/11 02:33:40;;;;;;;23.50;17.52;;;15.70;99.90;;;;;;5023464;28;20060;-59
2023/09/11 02:36:05;;;;;;;22.52;16.55;;;15.80;99.90;;;;;;5023620;28;20034;-59
2023/09/11 02:38:31;;;;;;;19.85;16.27;;;15.80;99.90;;;;;;5016562;28;20103;-59
2023/09/11 02:40:57;;;;;;;23.92;18.15;;;15.80;99.90;;;;;;5030072;28;20105;-59
2023/09/11 02:43:22;;;;;;;20.27;16.00;;;15.70;99.90;;;;;;5029922;28;20037;-59
2023/09/11 02:45:48;;;;;;;20.73;16.42;;;15.60;99.90;;;;;;5026131;28;20025;-60
2023/09/11 02:48:14;;;;;;;20.38;15.80;;;15.60;99.90;;;;;;5026084;28;20314;-60
2023/09/11 02:50:39;;;;;;;19.45;15.88;;;15.60;99.90;;;;;;5022934;28;20032;-60
2023/09/11 02:53:09;;;;;;;21.33;16.25;;;15.60;99.90;;;;;;5030111;28;20029;-59
2023/09/11 02:55:39;;;;;;;22.52;17.10;;;15.50;99.90;;;;;;5025805;28;20106;-60
2023/09/11 02:58:05;;;;;;;19.35;14.80;;;15.50;99.90;;;;;;5018172;28;20025;-60
2023/09/11 03:00:34;;;;;;;20.30;16.17;;;15.50;99.90;;;;;;5029818;28;20033;-60
2023/09/11 03:03:01;;;;;;;20.75;16.05;;;15.40;99.90;;;;;;5030509;28;20013;-60
2023/09/11 03:05:27;;;;;;;19.30;15.10;;;15.40;99.90;;;;;;5029543;28;20029;-59
2023/09/11 03:07:52;;;;;;;23.20;17.27;;;15.40;99.90;;;;;;5044971;28;20029;-59
2023/09/11 03:10:18;;;;;;;23.27;16.50;;;15.40;99.90;;;;;;5023970;28;20564;-59
2023/09/11 03:12:43;;;;;;;20.45;15.82;;;15.50;99.90;;;;;;5023537;28;20022;-59
2023/09/11 03:15:09;;;;;;;22.88;17.08;;;15.40;99.90;;;;;;5027995;28;20032;-59
2023/09/11 03:17:35;;;;;;;26.27;19.08;;;15.50;99.90;;;;;;5038489;28;20489;-60
2023/09/11 03:20:00;;;;;;;23.48;18.23;;;15.50;99.90;;;;;;5028822;28;20038;-60
2023/09/11 03:22:25;;;;;;;27.15;19.52;;;15.60;99.90;;;;;;5029856;28;20029;-60
2023/09/11 03:24:51;;;;;;;26.25;19.70;;;15.60;99.90;;;;;;5030211;28;20091;-60
2023/09/11 03:27:17;;;;;;;27.02;18.92;;;15.60;99.90;;;;;;5030325;28;20112;-59
2023/09/11 03:29:42;;;;;;;30.13;18.05;;;15.50;99.90;;;;;;5026607;28;20105;-59
2023/09/11 03:32:08;;;;;;;25.85;18.42;;;15.60;99.90;;;;;;5025869;28;20028;-59
2023/09/11 03:34:33;;;;;;;25.92;19.45;;;15.60;99.90;;;;;;5030216;28;20722;-59
2023/09/11 03:36:59;;;;;;;22.02;16.95;;;15.50;99.90;;;;;;5029690;28;20084;-59
2023/09/11 03:39:24;;;;;;;22.40;17.88;;;15.50;99.90;;;;;;5028458;28;20450;-60
2023/09/11 03:41:50;;;;;;;24.10;17.67;;;15.50;99.90;;;;;;5026891;28;20128;-59
2023/09/11 03:44:16;;;;;;;24.83;17.67;;;15.50;99.90;;;;;;5044697;28;20033;-60
2023/09/11 03:46:42;;;;;;;23.50;18.08;;;15.40;99.90;;;;;;5029768;28;20028;-60
2023/09/11 03:49:07;;;;;;;26.30;18.23;;;15.40;99.90;;;;;;5044235;28;20068;-59
2023/09/11 03:51:33;;;;;;;24.98;18.20;;;15.40;99.90;;;;;;5026482;28;20330;-60
2023/09/11 03:53:58;;;;;;;22.67;18.15;;;15.40;99.90;;;;;;5024537;28;20025;-60
2023/09/11 03:56:24;;;;;;;23.98;17.48;;;15.30;99.90;;;;;;5025375;28;20025;-59
2023/09/11 03:58:50;;;;;;;20.20;16.08;;;15.30;99.90;;;;;;5024673;28;20049;-59
2023/09/11 04:01:16;;;;;;;23.55;17.75;;;15.20;99.90;;;;;;5025596;28;20076;-59
2023/09/11 04:03:42;;;;;;;23.05;17.55;;;15.20;99.90;;;;;;5025876;28;20025;-58
2023/09/11 04:06:08;;;;;;;22.65;17.40;;;15.20;99.90;;;;;;5014279;28;20506;-58
2023/09/11 04:08:34;;;;;;;22.95;18.23;;;15.20;99.90;;;;;;5029158;28;20025;-60
2023/09/11 04:11:01;;;;;;;25.70;18.90;;;15.20;99.90;;;;;;5027561;28;20021;-60
2023/09/11 04:13:26;;;;;;;23.92;18.55;;;15.30;99.90;;;;;;5027884;28;20029;-59
2023/09/11 04:15:52;;;;;;;23.50;18.33;;;15.20;99.90;;;;;;5029703;28;20025;-58
2023/09/11 04:18:18;;;;;;;26.63;19.70;;;15.20;99.90;;;;;;5028893;28;20037;-58
2023/09/11 04:20:43;;;;;;;24.60;19.42;;;15.30;99.90;;;;;;5028979;28;20206;-58
2023/09/11 04:23:09;;;;;;;26.17;19.55;;;15.30;99.90;;;;;;5023785;28;20065;-58
2023/09/11 04:25:34;;;;;;;23.00;18.67;;;15.20;99.90;;;;;;5028756;28;20104;-58
2023/09/11 04:28:00;;;;;;;25.10;18.48;;;15.20;99.90;;;;;;5029203;28;20026;-59
2023/09/11 04:30:26;;;;;;;25.05;18.17;;;15.20;99.90;;;;;;5027245;28;20483;-60
2023/09/11 04:32:52;;;;;;;21.55;16.27;;;15.10;99.90;;;;;;5028296;28;20117;-60
2023/09/11 04:35:18;;;;;;;23.95;18.73;;;15.10;99.90;;;;;;5041377;28;20386;-60
2023/09/11 04:37:44;;;;;;;22.55;17.33;;;15.00;99.90;;;;;;5027577;28;20028;-60
2023/09/11 04:40:10;;;;;;;23.08;17.75;;;15.00;99.90;;;;;;5026867;28;20029;-60
2023/09/11 04:42:36;;;;;;;22.65;17.77;;;15.00;99.90;;;;;;5026963;28;20029;-60
2023/09/11 04:45:03;;;;;;;27.65;18.85;;;14.90;99.90;;;;;;5022035;28;20121;-60
2023/09/11 04:47:32;;;;;;;26.35;19.23;;;14.90;99.90;;;;;;5028817;28;20021;-60
2023/09/11 04:49:58;;;;;;;21.25;16.58;;;14.90;99.90;;;;;;5028554;28;20075;-60
2023/09/11 04:52:24;;;;;;;20.23;15.85;;;14.90;99.90;;;;;;5028746;28;20026;-59
2023/09/11 04:54:50;;;;;;;22.35;18.50;;;14.90;99.90;;;;;;5020425;28;20449;-59
2023/09/11 04:57:16;;;;;;;24.30;17.67;;;14.90;99.90;;;;;;5024630;28;20033;-58
2023/09/11 04:59:44;;;;;;;25.90;19.23;;;14.90;99.90;;;;;;5027377;28;20021;-59
2023/09/11 05:02:10;;;;;;;26.27;17.98;;;15.00;99.90;;;;;;5023110;28;20029;-60
2023/09/11 05:04:35;;;;;;;21.77;16.58;;;14.90;99.90;;;;;;5022921;28;20048;-58
2023/09/11 05:07:01;;;;;;;25.52;18.13;;;14.90;99.90;;;;;;5027111;28;20391;-58
2023/09/11 05:09:27;;;;;;;20.48;16.35;;;15.00;99.90;;;;;;5022140;28;20438;-58
2023/09/11 05:11:53;;;;;;;22.00;16.85;;;15.00;99.90;;;;;;5026468;28;20083;-57
2023/09/11 05:14:18;;;;;;;20.67;16.45;;;15.00;99.90;;;;;;5022333;28;20044;-58
2023/09/11 05:16:44;;;;;;;23.42;15.95;;;15.00;99.90;;;;;;5019450;28;20318;-58
2023/09/11 05:19:09;;;;;;;26.15;16.90;;;15.00;99.90;;;;;;5023489;28;20038;-58
2023/09/11 05:21:36;;;;;;;22.58;16.38;;;15.00;99.90;;;;;;5024607;28;20083;-59
2023/09/11 05:24:03;;;;;;;19.92;16.38;;;15.10;99.90;;;;;;5024423;28;20018;-59
2023/09/11 05:26:29;;;;;;;21.38;16.85;;;15.10;99.90;;;;;;5023988;28;20049;-59
2023/09/11 05:28:54;;;;;;;20.75;16.17;;;15.10;99.90;;;;;;5018196;28;20120;-59
2023/09/11 05:31:20;;;;;;;22.95;16.98;;;15.20;99.90;;;;;;5012182;28;20483;-59
2023/09/11 05:33:45;;;;;;;22.58;17.58;;;15.30;99.90;;;;;;5021481;28;20037;-59
2023/09/11 05:36:11;;;;;;;20.40;17.35;;;15.30;99.90;;;;;;5023443;28;20049;-59
2023/09/11 05:38:37;;;;;;;25.58;18.50;;;15.30;99.90;;;;;;5031496;28;20048;-58
2023/09/11 05:41:02;;;;;;;25.23;18.38;;;15.40;99.90;;;;;;5017404;28;20026;-60
2023/09/11 05:43:28;;;;;;;25.40;19.45;;;15.50;99.90;;;;;;5040793;28;20033;-60
2023/09/11 05:45:54;;;;;;;21.10;16.35;;;15.50;99.90;;;;;;5019211;28;20034;-59
2023/09/11 05:48:20;;;;;;;23.30;19.75;;;15.60;99.90;;;;;;5028175;28;20043;-59
2023/09/11 05:50:45;;;;;;;21.30;17.35;;;15.80;99.90;;;;;;5031647;28;20386;-59
2023/09/11 05:53:11;;;;;;;22.98;18.58;;;15.80;99.90;;;;;;5030489;28;20461;-59
2023/09/11 05:55:37;;;;;;;23.85;18.42;;;15.90;99.90;;;;;;5029745;28;20026;-59
2023/09/11 05:58:02;;;;;;;38.85;21.10;;;16.00;99.90;;;;;;5023988;28;20399;-59
2023/09/11 06:00:28;;;;;;;25.38;19.38;;;16.00;99.90;;;;;;5029903;28;20029;-59
2023/09/11 06:02:54;;;;;;;21.73;17.23;;;16.10;99.90;;;;;;5030569;28;20053;-59
2023/09/11 06:05:20;;;;;;;21.73;17.27;;;16.10;99.90;;;;;;5025314;28;20021;-58
2023/09/11 06:07:45;;;;;;;22.33;17.02;;;16.20;99.90;;;;;;5022093;28;20514;-58
2023/09/11 06:10:12;;;;;;;24.15;17.77;;;16.30;99.90;;;;;;5017536;28;20121;-58
2023/09/11 06:12:38;;;;;;;23.80;17.33;;;16.30;99.90;;;;;;5036916;28;20429;-59
2023/09/11 06:15:05;;;;;;;20.83;17.02;;;16.40;99.90;;;;;;5023665;28;20076;-59
2023/09/11 06:17:31;;;;;;;21.92;17.33;;;16.50;99.90;;;;;;5018639;28;20018;-58
2023/09/11 06:19:56;;;;;;;20.45;16.60;;;16.50;99.90;;;;;;5025680;28;20099;-58
2023/09/11 06:22:22;;;;;;;22.98;18.00;;;16.60;99.90;;;;;;5027848;28;20076;-59
2023/09/11 06:24:48;;;;;;;20.35;16.52;;;16.70;99.90;;;;;;5022402;28;20078;-60
2023/09/11 06:27:13;;;;;;;25.60;17.48;;;16.70;99.90;;;;;;5025788;28;20036;-59
2023/09/11 06:29:39;;;;;;;21.90;16.60;;;16.80;99.90;;;;;;5015833;28;20113;-59
2023/09/11 06:32:05;;;;;;;23.02;17.15;;;16.90;99.90;;;;;;5020561;28;20045;-59
2023/09/11 06:34:31;;;;;;;20.67;16.27;;;17.00;99.90;;;;;;5013501;28;20022;-59
2023/09/11 06:36:57;;;;;;;20.20;16.45;;;17.00;99.90;;;;;;5022877;28;20459;-59
2023/09/11 06:39:23;;;;;;;21.75;17.45;;;17.10;99.90;;;;;;5018680;28;20029;-59
2023/09/11 06:41:48;;;;;;;21.88;16.95;;;17.20;99.90;;;;;;5019319;28;20506;-60
2023/09/11 06:44:14;;;;;;;20.30;17.02;;;17.30;99.90;;;;;;5019379;28;20457;-59
2023/09/11 06:46:40;;;;;;;20.17;16.02;;;17.40;99.90;;;;;;5024085;28;20018;-61
2023/09/11 06:49:05;;;;;;;26.20;17.85;;;17.50;99.90;;;;;;5029156;28;20378;-59
2023/09/11 06:51:33;;;;;;;19.63;16.13;;;17.70;99.90;;;;;;5026421;28;20053;-59
2023/09/11 06:53:58;;;;;;;21.50;16.65;;;17.80;99.90;;;;;;5019877;28;20038;-59
2023/09/11 06:56:24;;;;;;;20.85;16.63;;;17.90;99.90;;;;;;5039727;28;20445;-61
2023/09/11 06:58:49;;;;;;;20.38;16.70;;;18.00;99.90;;;;;;5026241;28;20021;-60
2023/09/11 07:01:15;;;;;;;18.85;16.30;;;18.10;99.90;;;;;;5018069;28;20382;-59
2023/09/11 07:03:41;;;;;;;20.70;15.95;;;18.30;99.90;;;;;;5036066;28;20499;-59
2023/09/11 07:06:07;;;;;;;19.08;16.58;;;18.40;99.90;;;;;;5022618;28;20044;-59
2023/09/11 07:08:32;;;;;;;20.70;16.25;;;18.50;99.90;;;;;;5026174;28;20483;-59
2023/09/11 07:10:58;;;;;;;21.33;16.90;;;18.60;99.90;;;;;;5021440;28;20430;-59
2023/09/11 07:13:23;;;;;;;21.75;17.55;;;18.80;99.90;;;;;;5030017;28;20032;-59
2023/09/11 07:15:57;;;;;;;18.40;16.00;;;18.90;99.90;;;;;;5033194;28;20025;-59
2023/09/11 07:18:23;;;;;;;19.92;15.52;;;19.00;99.90;;;;;;5019669;28;20549;-61
2023/09/11 07:20:51;;;;;;;18.90;15.77;;;19.10;99.90;;;;;;5041966;28;20021;-59
2023/09/11 07:23:16;;;;;;;21.55;16.52;;;19.20;99.90;;;;;;5010587;28;20079;-60
2023/09/11 07:25:42;;;;;;;20.73;16.17;;;19.40;99.90;;;;;;5009028;28;20026;-59
2023/09/11 07:28:07;;;;;;;17.33;14.95;;;19.60;99.90;;;;;;5015613;28;20037;-58
2023/09/11 07:30:33;;;;;;;17.67;15.73;;;19.70;99.90;;;;;;5029518;28;20357;-59
2023/09/11 07:32:58;;;;;;;18.92;16.13;;;19.80;99.90;;;;;;5028372;28;20051;-59
2023/09/11 07:35:24;;;;;;;17.92;15.30;;;19.90;99.90;;;;;;5029956;28;20529;-59
2023/09/11 07:37:49;;;;;;;18.08;15.57;;;20.10;99.90;;;;;;5029613;28;20026;-59
2023/09/11 07:40:15;;;;;;;18.50;14.35;;;20.20;99.90;;;;;;5029209;28;20021;-59
2023/09/11 07:42:40;;;;;;;18.10;14.85;;;20.30;99.90;;;;;;5021406;28;20026;-59
2023/09/11 07:45:06;;;;;;;17.75;15.82;;;20.50;99.90;;;;;;5029756;28;20076;-57
2023/09/11 07:47:32;;;;;;;16.30;14.70;;;20.60;99.90;;;;;;5020622;28;20036;-56
2023/09/11 07:49:58;;;;;;;16.48;14.70;;;20.80;99.90;;;;;;5015672;28;20066;-56
2023/09/11 07:52:23;;;;;;;17.35;14.93;;;21.00;99.90;;;;;;5025588;28;20103;-56
2023/09/11 07:54:49;;;;;;;14.88;13.27;;;21.20;99.90;;;;;;5024449;28;20025;-58
2023/09/11 07:57:14;;;;;;;14.30;12.75;;;21.50;99.90;;;;;;5018084;28;20018;-56
2023/09/11 07:59:40;;;;;;;16.77;11.75;;;21.90;99.90;;;;;;5027374;28;20049;-56
2023/09/11 08:02:05;;;;;;;14.43;12.95;;;22.40;99.90;;;;;;5016063;28;20034;-57
2023/09/11 08:04:32;;;;;;;16.00;13.25;;;22.90;99.90;;;;;;5009808;28;20026;-56
2023/09/11 08:06:58;;;;;;;13.40;12.00;;;23.30;99.90;;;;;;5014393;28;20024;-57
2023/09/11 08:09:23;;;;;;;16.50;12.32;;;23.50;99.90;;;;;;5022781;28;20112;-57
2023/09/11 08:11:50;;;;;;;16.65;11.80;;;23.80;99.90;;;;;;5028751;28;20438;-57
2023/09/11 08:14:16;;;;;;;12.93;11.57;;;24.30;99.90;;;;;;5023121;28;20440;-57
2023/09/11 08:16:42;;;;;;;14.35;10.93;;;24.80;99.90;;;;;;5009753;28;20369;-57
2023/09/11 08:19:08;;;;;;;11.20;10.15;;;25.60;99.90;;;;;;5022924;28;20021;-60
2023/09/11 08:21:34;;;;;;;17.90;10.80;;;26.60;99.90;;;;;;5028797;28;20418;-59
2023/09/11 08:24:00;;;;;;;11.50;9.90;;;27.30;99.90;;;;;;5027078;28;20057;-57
2023/09/11 08:26:25;;;;;;;10.50;8.25;;;28.30;99.80;;;;;;5024510;28;20033;-58
2023/09/11 08:28:51;;;;;;;10.00;9.00;;;29.70;97.00;;;;;;5021155;28;20025;-58
2023/09/11 08:31:16;;;;;;;8.98;8.07;;;31.10;93.80;;;;;;5017641;28;20022;-58
2023/09/11 08:33:42;;;;;;;8.23;7.32;;;32.30;91.80;;;;;;5022008;28;20036;-58
2023/09/11 08:36:09;;;;;;;9.57;7.57;;;33.50;89.10;;;;;;5024423;28;20034;-58
2023/09/11 08:38:35;;;;;;;8.23;7.38;;;34.60;84.50;;;;;;5009450;28;20030;-58
2023/09/11 08:41:02;;;;;;;9.60;6.93;;;35.50;80.80;;;;;;5013405;28;20559;-58
2023/09/11 08:43:28;;;;;;;8.80;6.53;;;36.20;76.00;;;;;;5029180;28;20032;-59
2023/09/11 08:45:55;;;;;;;11.05;6.20;;;36.70;74.80;;;;;;5031528;28;20033;-59
2023/09/11 08:48:26;;;;;;;11.45;7.47;;;37.20;72.80;;;;;;5026616;28;20029;-59
2023/09/11 08:50:56;;;;;;;8.68;6.63;;;38.00;69.80;;;;;;5020817;28;20383;-59
2023/09/11 08:53:22;;;;;;;9.10;6.55;;;38.10;69.50;;;;;;5021363;28;20022;-60
2023/09/11 08:55:49;;;;;;;8.48;5.88;;;38.00;67.90;;;;;;5019016;28;20112;-60
2023/09/11 08:58:19;;;;;;;8.48;6.45;;;38.00;66.90;;;;;;5023672;28;20219;-60
2023/09/11 09:00:45;;;;;;;11.98;6.82;;;38.20;64.70;;;;;;5023913;28;20047;-60
2023/09/11 09:03:12;;;;;;;15.32;6.22;;;37.90;66.10;;;;;;5022672;28;20030;-60
2023/09/11 09:05:38;;;;;;;7.75;6.50;;;38.50;65.50;;;;;;5024015;28;20030;-60
2023/09/11 09:08:05;;;;;;;7.85;6.72;;;38.80;64.70;;;;;;5023850;28;20040;-60
2023/09/11 09:10:31;;;;;;;7.43;5.68;;;39.00;64.40;;;;;;5020704;28;20168;-60
2023/09/11 09:12:56;;;;;;;6.75;5.95;;;39.90;62.20;;;;;;5038343;28;20116;-60
2023/09/11 09:15:23;;;;;;;11.02;5.68;;;40.10;62.90;;;;;;5022739;28;20432;-59
2023/09/11 09:17:50;;;;;;;15.05;6.55;;;40.50;59.10;;;;;;5019835;28;20036;-59
2023/09/11 09:20:17;;;;;;;7.78;5.70;;;40.40;60.00;;;;;;5024486;28;20139;-59
2023/09/11 09:22:57;;;;;;;8.57;5.55;;;40.70;59.20;;;;;;5023241;28;20025;-59
2023/09/11 09:25:24;;;;;;;11.60;5.85;;;40.70;59.50;;;;;;5031789;28;20410;-59
2023/09/11 09:27:50;;;;;;;8.57;5.68;;;40.90;59.40;;;;;;5022156;28;20101;-59
2023/09/11 09:30:30;;;;;;;7.50;5.43;;;40.60;59.40;;;;;;5017063;28;20566;-59
2023/09/11 09:32:56;;;;;;;8.70;5.43;;;41.60;58.60;;;;;;5030001;28;20056;-59
2023/09/11 09:35:28;;;;;;;11.65;5.13;;;41.70;58.10;;;;;;5024208;28;20037;-59
2023/09/11 09:37:56;;;;;;;12.70;5.68;;;40.90;55.30;;;;;;5030852;28;20037;-59
2023/09/11 09:40:36;;;;;;;12.25;4.78;;;40.30;56.10;;;;;;5046740;28;20116;-59
2023/09/11 09:43:05;;;;;;;12.10;5.18;;;40.70;55.40;;;;;;5047576;28;20113;-59
2023/09/11 09:45:37;;;;;;;12.93;5.38;;;41.60;54.40;;;;;;5047526;28;20099;-59
2023/09/11 09:48:14;;;;;;;15.30;4.88;;;41.00;53.90;;;;;;5030119;28;20569;-59
2023/09/11 09:51:05;;;;;;;18.80;5.85;;;41.20;53.20;;;;;;5031674;28;20103;-59
2023/09/11 09:53:33;;;;;;;9.30;4.30;;;41.40;53.10;;;;;;5029089;28;20117;-59
2023/09/11 09:56:04;;;;;;;14.05;5.18;;;40.90;53.20;;;;;;5031662;28;20481;-59
2023/09/11 09:58:33;;;;;;;15.50;5.15;;;42.00;52.00;;;;;;5031932;28;20025;-59
2023/09/11 10:01:07;;;;;;;12.73;4.72;;;41.90;51.50;;;;;;5019981;28;20028;-59
2023/09/11 10:03:53;;;;;;;12.50;4.85;;;42.00;51.60;;;;;;5028103;28;20026;-59
2023/09/11 10:06:21;;;;;;;15.50;4.88;;;42.20;52.90;;;;;;5025612;28;20088;-59
2023/09/11 10:09:02;;;;;;;19.30;5.15;;;42.00;54.20;;;;;;5031292;28;20025;-59
2023/09/11 10:11:30;;;;;;;19.65;5.28;;;42.40;51.50;;;;;;5031538;28;20033;-59
2023/09/11 10:13:57;;;;;;;21.85;5.68;;;42.00;50.70;;;;;;5046688;28;20044;-59
2023/09/11 10:16:24;;;;;;;14.37;5.80;;;42.10;51.40;;;;;;5023614;28;20378;-59
2023/09/11 10:18:52;;;;;;;18.30;5.70;;;42.10;52.50;;;;;;5028921;28;20112;-59
2023/09/11 10:21:18;;;;;;;15.02;6.45;;;42.40;52.10;;;;;;5025383;28;20018;-59
2023/09/11 10:23:45;;;;;;;18.10;5.60;;;43.30;51.20;;;;;;5030693;28;20399;-59
2023/09/11 10:26:17;;;;;;;23.85;7.72;;;42.60;50.10;;;;;;5031450;28;20537;-59
2023/09/11 10:28:47;;;;;;;20.92;6.03;;;42.30;50.70;;;;;;5046653;28;20068;-59
2023/09/11 10:31:29;;;;;;;17.38;5.10;;;41.40;51.10;;;;;;5017687;28;20146;-59
2023/09/11 10:33:57;;;;;;;17.70;5.63;;;41.40;51.50;;;;;;5021773;28;20466;-60
2023/09/11 10:36:26;;;;;;;21.47;7.00;;;41.70;51.90;;;;;;5031585;28;20030;-60
2023/09/11 10:38:58;;;;;;;28.05;6.18;;;42.10;51.70;;;;;;5029448;28;20060;-60
2023/09/11 10:41:24;;;;;;;12.75;5.53;;;41.30;50.40;;;;;;5023151;28;20037;-60
2023/09/11 10:43:51;;;;;;;28.65;7.10;;;41.80;50.50;;;;;;5029642;28;20055;-60
2023/09/11 10:46:39;;;;;;;24.00;7.18;;;42.00;51.80;;;;;;5031063;28;20025;-60
2023/09/11 10:49:16;;;;;;;15.93;6.70;;;41.90;50.30;;;;;;5010862;28;20030;-60
2023/09/11 10:51:41;;;;;;;26.27;6.80;;;41.90;51.00;;;;;;5027409;28;20025;-60
2023/09/11 10:54:10;;;;;;;18.95;5.85;;;41.90;50.50;;;;;;5030773;28;20044;-60
2023/09/11 10:56:36;;;;;;;22.88;5.68;;;41.40;50.30;;;;;;5030890;28;20022;-60
2023/09/11 10:59:02;;;;;;;20.00;5.78;;;41.70;52.70;;;;;;5023273;28;20387;-60
2023/09/11 11:01:28;;;;;;;20.08;6.95;;;42.00;51.90;;;;;;5045670;28;20076;-60
2023/09/11 11:03:53;;;;;;;21.70;5.75;;;42.20;51.60;;;;;;5030085;28;20434;-60
2023/09/11 11:06:22;;;;;;;15.88;6.57;;;42.60;51.10;;;;;;5030705;28;20035;-60
2023/09/11 11:08:48;;;;;;;25.77;5.60;;;41.90;50.20;;;;;;5014177;28;20029;-60
2023/09/11 11:11:27;;;;;;;23.77;6.15;;;41.90;50.20;;;;;;5030016;28;20510;-60
2023/09/11 11:14:13;;;;;;;21.42;6.03;;;41.90;51.90;;;;;;5028868;28;20080;-60
2023/09/11 11:16:39;;;;;;;27.75;6.75;;;42.00;50.40;;;;;;5010841;28;20026;-60
2023/09/11 11:19:05;;;;;;;24.08;6.57;;;42.00;50.40;;;;;;5026570;28;20095;-60
2023/09/11 11:21:39;;;;;;;24.92;5.88;;;42.10;51.30;;;;;;5029751;28;20060;-60
2023/09/11 11:24:05;;;;;;;19.35;5.88;;;42.40;48.10;;;;;;5022246;28;20020;-59
2023/09/11 11:26:35;;;;;;;34.60;6.53;;;41.00;49.20;;;;;;5016278;28;20022;-59
2023/09/11 11:29:00;;;;;;;16.23;6.15;;;41.10;50.20;;;;;;5029384;28;20076;-61
2023/09/11 11:31:27;;;;;;;20.90;5.35;;;41.80;50.50;;;;;;5030077;28;20025;-61
2023/09/11 11:33:57;;;;;;;21.35;5.88;;;41.80;50.50;;;;;;5025788;28;20541;-61
2023/09/11 11:36:26;;;;;;;19.42;6.07;;;42.10;49.80;;;;;;5029573;28;20024;-60
2023/09/11 11:38:55;;;;;;;20.00;5.82;;;42.40;51.10;;;;;;5029328;28;20037;-61
2023/09/11 11:41:22;;;;;;;31.88;7.82;;;42.30;50.10;;;;;;5029890;28;20049;-61
2023/09/11 11:43:48;;;;;;;27.23;5.93;;;42.40;49.20;;;;;;5030190;28;20096;-61
2023/09/11 11:46:15;;;;;;;16.20;5.63;;;42.60;49.20;;;;;;5029789;28;20056;-60
2023/09/11 11:48:41;;;;;;;20.52;6.70;;;42.20;49.40;;;;;;5029703;28;20025;-61
2023/09/11 11:51:07;;;;;;;18.42;6.00;;;41.70;51.70;;;;;;5043955;28;20109;-61
2023/09/11 11:53:33;;;;;;;22.75;6.97;;;41.90;50.30;;;;;;5035190;28;20116;-61
2023/09/11 11:56:02;;;;;;;23.10;5.65;;;42.40;49.70;;;;;;5026793;28;20531;-61
2023/09/11 11:58:28;;;;;;;16.45;5.55;;;42.10;50.40;;;;;;5029863;28;20018;-61
2023/09/11 12:01:05;;;;;;;22.13;6.35;;;41.90;50.70;;;;;;5028971;28;20029;-61
2023/09/11 12:03:32;;;;;;;17.27;5.88;;;41.70;49.00;;;;;;5029560;28;20022;-61
2023/09/11 12:06:00;;;;;;;14.55;6.03;;;41.10;50.10;;;;;;5029601;28;20432;-61
2023/09/11 12:08:26;;;;;;;15.38;5.43;;;41.40;50.60;;;;;;5029686;28;20037;-60
2023/09/11 12:10:52;;;;;;;23.02;6.25;;;41.20;50.80;;;;;;5028086;28;20026;-60
2023/09/11 12:13:23;;;;;;;25.08;6.50;;;40.00;50.80;;;;;;5044753;28;20069;-60
2023/09/11 12:15:52;;;;;;;21.85;6.63;;;39.90;53.00;;;;;;5029680;28;20092;-59
2023/09/11 12:18:19;;;;;;;24.23;6.15;;;39.60;52.40;;;;;;5029627;28;20022;-59
2023/09/11 12:20:59;;;;;;;17.85;6.10;;;39.10;52.50;;;;;;5044345;28;20018;-59
2023/09/11 12:23:25;;;;;;;25.67;6.50;;;38.80;53.80;;;;;;5029613;28;20394;-59
2023/09/11 12:25:51;;;;;;;18.15;6.50;;;38.40;53.30;;;;;;5029238;28;20036;-60
2023/09/11 12:28:19;;;;;;;21.27;6.43;;;37.80;55.00;;;;;;5017895;28;20509;-59
2023/09/11 12:30:45;;;;;;;23.25;6.57;;;37.60;55.50;;;;;;5024987;28;20107;-59